Fay, Oklahoma
Current Conditions -  °F | °C
As of 3:15 PM on Saturday 22 Nov 2014 (Local Time) from KJWG Reporting Station
Broken Clouds Broken Clouds  
Wind Chill: 57°   Ceiling: 1000
Heat Index: 57°   Visibility: 10mi
Dew Point: 57°   Wind: 12mph
Humidity: 100%   Direction: 170°S
Pressure: 29.78"   Gusts: NA
Location:  35.81°N, 98.66°W
Report Text: KJWG 222115Z AUTO 17010KT 10SM SCT004 BKN010 14/14 A2978 RMK AO2 LTG DSNT S T01390139
Loading
Personal Weather Stations






























Interactive Weather Map New forecast layout! Learn more

10-Day Weather Forecast

Advertisements
Track Severe Weather on mobile